sensor_id;sensor_type;location;lat;lon;timestamp;pressure;altitude;pressure_sealevel;temperature;humidity
48156;BME280;35568;48.104;11.782;2023-02-28T00:02:16;95803.25;;;-2.21;45.58
48156;BME280;35568;48.104;11.782;2023-02-28T00:04:43;95802.71;;;-2.20;45.84
48156;BME280;35568;48.104;11.782;2023-02-28T00:07:10;95805.01;;;-2.15;45.30
48156;BME280;35568;48.104;11.782;2023-02-28T00:09:37;95801.91;;;-2.16;45.58
48156;BME280;35568;48.104;11.782;2023-02-28T00:12:04;95800.74;;;-2.14;45.44
48156;BME280;35568;48.104;11.782;2023-02-28T00:14:32;95802.18;;;-1.77;45.31
48156;BME280;35568;48.104;11.782;2023-02-28T00:16:59;95802.55;;;-2.12;45.38
48156;BME280;35568;48.104;11.782;2023-02-28T00:19:26;95799.54;;;-2.06;45.32
48156;BME280;35568;48.104;11.782;2023-02-28T00:21:52;95797.48;;;-2.07;44.92
48156;BME280;35568;48.104;11.782;2023-02-28T00:24:19;95796.02;;;-1.99;45.55
48156;BME280;35568;48.104;11.782;2023-02-28T00:26:46;95793.82;;;-2.10;45.47
48156;BME280;35568;48.104;11.782;2023-02-28T00:29:13;95793.27;;;-2.27;45.43
48156;BME280;35568;48.104;11.782;2023-02-28T00:31:40;95790.08;;;-2.10;45.38
48156;BME280;35568;48.104;11.782;2023-02-28T00:34:07;95791.66;;;-2.09;45.08
48156;BME280;35568;48.104;11.782;2023-02-28T00:36:34;95789.03;;;-2.19;45.33
48156;BME280;35568;48.104;11.782;2023-02-28T00:39:01;95788.29;;;-2.15;45.56
48156;BME280;35568;48.104;11.782;2023-02-28T00:41:28;95785.87;;;-2.23;45.77
48156;BME280;35568;48.104;11.782;2023-02-28T00:43:55;95785.59;;;-1.95;45.43
48156;BME280;35568;48.104;11.782;2023-02-28T00:46:21;95786.80;;;-2.45;45.75
48156;BME280;35568;48.104;11.782;2023-02-28T00:48:48;95784.81;;;-2.41;45.55
48156;BME280;35568;48.104;11.782;2023-02-28T00:51:15;95788.85;;;-2.31;45.74
48156;BME280;35568;48.104;11.782;2023-02-28T00:53:42;95787.65;;;-2.25;45.56
48156;BME280;35568;48.104;11.782;2023-02-28T00:56:09;95788.03;;;-2.25;45.81
48156;BME280;35568;48.104;11.782;2023-02-28T00:58:36;95787.28;;;-2.17;45.77
48156;BME280;35568;48.104;11.782;2023-02-28T01:01:03;95785.36;;;-2.07;45.75
48156;BME280;35568;48.104;11.782;2023-02-28T01:03:30;95789.38;;;-2.06;45.59
48156;BME280;35568;48.104;11.782;2023-02-28T01:05:57;95784.10;;;-2.18;45.32
48156;BME280;35568;48.104;11.782;2023-02-28T01:08:24;95779.85;;;-2.11;45.82
48156;BME280;35568;48.104;11.782;2023-02-28T01:10:52;95779.39;;;-2.27;45.46
48156;BME280;35568;48.104;11.782;2023-02-28T01:13:19;95780.22;;;-2.25;46.19
48156;BME280;35568;48.104;11.782;2023-02-28T01:15:50;95775.59;;;-2.26;45.87
48156;BME280;35568;48.104;11.782;2023-02-28T01:18:17;95777.17;;;-2.10;45.72
48156;BME280;35568;48.104;11.782;2023-02-28T01:20:44;95778.08;;;-2.08;45.87
48156;BME280;35568;48.104;11.782;2023-02-28T01:23:11;95776.85;;;-2.10;45.46
48156;BME280;35568;48.104;11.782;2023-02-28T01:25:38;95773.20;;;-2.08;45.33
48156;BME280;35568;48.104;11.782;2023-02-28T01:28:05;95770.09;;;-2.07;45.41
48156;BME280;35568;48.104;11.782;2023-02-28T01:30:32;95768.30;;;-2.12;45.58
48156;BME280;35568;48.104;11.782;2023-02-28T01:33:00;95761.98;;;-2.11;45.63
48156;BME280;35568;48.104;11.782;2023-02-28T01:35:27;95760.59;;;-2.15;45.88
48156;BME280;35568;48.104;11.782;2023-02-28T01:37:54;95758.88;;;-2.21;45.93
48156;BME280;35568;48.104;11.782;2023-02-28T01:40:22;95758.54;;;-2.30;45.25
48156;BME280;35568;48.104;11.782;2023-02-28T01:42:49;95756.99;;;-2.25;45.40
48156;BME280;35568;48.104;11.782;2023-02-28T01:45:22;95753.44;;;-2.32;46.47
48156;BME280;35568;48.104;11.782;2023-02-28T01:47:53;95750.61;;;-2.39;46.27
48156;BME280;35568;48.104;11.782;2023-02-28T01:50:24;95748.25;;;-2.51;45.69
48156;BME280;35568;48.104;11.782;2023-02-28T01:52:55;95748.66;;;-2.54;45.78
48156;BME280;35568;48.104;11.782;2023-02-28T01:55:24;95747.79;;;-2.60;46.48
48156;BME280;35568;48.104;11.782;2023-02-28T01:57:55;95749.46;;;-2.47;46.41
48156;BME280;35568;48.104;11.782;2023-02-28T02:00:25;95748.00;;;-2.52;45.76
48156;BME280;35568;48.104;11.782;2023-02-28T02:02:55;95747.27;;;-2.59;46.09
48156;BME280;35568;48.104;11.782;2023-02-28T02:05:25;95746.26;;;-2.46;46.43
48156;BME280;35568;48.104;11.782;2023-02-28T02:07:55;95745.09;;;-2.20;46.20
48156;BME280;35568;48.104;11.782;2023-02-28T02:10:27;95746.24;;;-2.41;45.98
48156;BME280;35568;48.104;11.782;2023-02-28T02:13:08;95744.61;;;-2.26;45.67
48156;BME280;35568;48.104;11.782;2023-02-28T02:15:41;95745.78;;;-2.32;45.76
48156;BME280;35568;48.104;11.782;2023-02-28T02:18:19;95749.20;;;-2.78;45.93
48156;BME280;35568;48.104;11.782;2023-02-28T02:25:28;95745.47;;;-2.35;46.85
48156;BME280;35568;48.104;11.782;2023-02-28T02:28:18;95745.71;;;-2.84;46.31
48156;BME280;35568;48.104;11.782;2023-02-28T02:31:19;95744.70;;;-2.48;45.67
48156;BME280;35568;48.104;11.782;2023-02-28T02:35:10;95745.70;;;-2.50;46.41
48156;BME280;35568;48.104;11.782;2023-02-28T02:37:42;95743.81;;;-2.77;46.09
48156;BME280;35568;48.104;11.782;2023-02-28T02:40:14;95740.59;;;-2.86;46.70
48156;BME280;35568;48.104;11.782;2023-02-28T02:42:48;95738.38;;;-2.60;46.50
48156;BME280;35568;48.104;11.782;2023-02-28T02:45:21;95735.72;;;-2.72;46.50
48156;BME280;35568;48.104;11.782;2023-02-28T02:47:51;95735.24;;;-2.84;46.61
48156;BME280;35568;48.104;11.782;2023-02-28T02:50:24;95733.65;;;-2.89;47.12
48156;BME280;35568;48.104;11.782;2023-02-28T02:52:56;95732.63;;;-3.43;47.31
48156;BME280;35568;48.104;11.782;2023-02-28T02:55:27;95731.40;;;-3.18;47.48
48156;BME280;35568;48.104;11.782;2023-02-28T02:57:59;95730.34;;;-3.07;47.87
48156;BME280;35568;48.104;11.782;2023-02-28T03:00:32;95728.75;;;-3.10;48.04
48156;BME280;35568;48.104;11.782;2023-02-28T03:03:01;95728.73;;;-3.21;47.69
48156;BME280;35568;48.104;11.782;2023-02-28T03:05:34;95730.45;;;-3.20;47.55
48156;BME280;35568;48.104;11.782;2023-02-28T03:08:04;95730.80;;;-3.17;47.84
48156;BME280;35568;48.104;11.782;2023-02-28T03:10:35;95731.49;;;-3.00;47.38
48156;BME280;35568;48.104;11.782;2023-02-28T03:13:13;95728.80;;;-3.29;47.75
48156;BME280;35568;48.104;11.782;2023-02-28T03:15:57;95728.52;;;-3.31;48.13
48156;BME280;35568;48.104;11.782;2023-02-28T03:18:34;95730.56;;;-3.00;48.02
48156;BME280;35568;48.104;11.782;2023-02-28T03:21:09;95728.82;;;-3.10;48.12
48156;BME280;35568;48.104;11.782;2023-02-28T03:23:47;95732.27;;;-2.87;48.10
48156;BME280;35568;48.104;11.782;2023-02-28T03:26:21;95731.67;;;-3.00;47.75
48156;BME280;35568;48.104;11.782;2023-02-28T03:28:53;95732.81;;;-2.71;47.74
48156;BME280;35568;48.104;11.782;2023-02-28T03:31:28;95729.71;;;-2.73;47.29
48156;BME280;35568;48.104;11.782;2023-02-28T03:34:01;95731.68;;;-2.70;47.11
48156;BME280;35568;48.104;11.782;2023-02-28T03:36:35;95733.42;;;-2.67;46.68
48156;BME280;35568;48.104;11.782;2023-02-28T03:39:07;95731.29;;;-2.82;46.89
48156;BME280;35568;48.104;11.782;2023-02-28T03:41:40;95731.12;;;-2.74;47.29
48156;BME280;35568;48.104;11.782;2023-02-28T03:44:12;95733.42;;;-2.66;47.11
48156;BME280;35568;48.104;11.782;2023-02-28T03:46:44;95734.25;;;-3.18;47.52
48156;BME280;35568;48.104;11.782;2023-02-28T03:49:16;95733.93;;;-2.77;46.97
48156;BME280;35568;48.104;11.782;2023-02-28T03:51:46;95732.94;;;-3.15;47.23
48156;BME280;35568;48.104;11.782;2023-02-28T03:54:18;95735.97;;;-2.93;47.07
48156;BME280;35568;48.104;11.782;2023-02-28T03:56:50;95740.72;;;-3.25;47.13
48156;BME280;35568;48.104;11.782;2023-02-28T03:59:21;95741.87;;;-2.64;47.03
48156;BME280;35568;48.104;11.782;2023-02-28T04:03:00;95742.55;;;-2.83;46.56
48156;BME280;35568;48.104;11.782;2023-02-28T04:05:28;95745.60;;;-2.90;46.65
48156;BME280;35568;48.104;11.782;2023-02-28T04:08:04;95751.30;;;-2.73;46.81
48156;BME280;35568;48.104;11.782;2023-02-28T04:10:31;95756.24;;;-2.98;46.77
48156;BME280;35568;48.104;11.782;2023-02-28T04:12:58;95762.79;;;-2.76;46.85
48156;BME280;35568;48.104;11.782;2023-02-28T04:15:25;95763.96;;;-2.55;47.09
48156;BME280;35568;48.104;11.782;2023-02-28T04:17:52;95765.11;;;-2.80;47.00
48156;BME280;35568;48.104;11.782;2023-02-28T04:20:19;95765.86;;;-2.98;47.41
48156;BME280;35568;48.104;11.782;2023-02-28T04:22:46;95767.07;;;-2.52;47.18
48156;BME280;35568;48.104;11.782;2023-02-28T04:25:13;95767.39;;;-2.87;46.90
48156;BME280;35568;48.104;11.782;2023-02-28T04:27:40;95767.71;;;-2.92;47.19
48156;BME280;35568;48.104;11.782;2023-02-28T04:30:08;95768.83;;;-2.68;47.49
48156;BME280;35568;48.104;11.782;2023-02-28T04:32:35;95768.14;;;-2.58;47.25
48156;BME280;35568;48.104;11.782;2023-02-28T04:35:03;95765.51;;;-2.51;47.20
48156;BME280;35568;48.104;11.782;2023-02-28T04:37:30;95764.54;;;-2.62;47.03
48156;BME280;35568;48.104;11.782;2023-02-28T04:39:57;95761.41;;;-2.82;47.37
48156;BME280;35568;48.104;11.782;2023-02-28T04:42:24;95765.78;;;-3.02;47.31
48156;BME280;35568;48.104;11.782;2023-02-28T04:44:51;95765.80;;;-2.93;47.65
48156;BME280;35568;48.104;11.782;2023-02-28T04:47:18;95768.09;;;-2.84;47.48
48156;BME280;35568;48.104;11.782;2023-02-28T04:49:44;95768.17;;;-2.75;47.15
48156;BME280;35568;48.104;11.782;2023-02-28T04:52:11;95770.26;;;-2.42;46.97
48156;BME280;35568;48.104;11.782;2023-02-28T04:54:38;95770.36;;;-2.46;47.01
48156;BME280;35568;48.104;11.782;2023-02-28T04:57:05;95771.60;;;-2.67;46.81
48156;BME280;35568;48.104;11.782;2023-02-28T04:59:32;95773.54;;;-2.65;47.26
48156;BME280;35568;48.104;11.782;2023-02-28T05:01:59;95774.27;;;-2.42;47.22
48156;BME280;35568;48.104;11.782;2023-02-28T05:04:26;95774.79;;;-2.64;47.38
48156;BME280;35568;48.104;11.782;2023-02-28T05:06:52;95779.05;;;-2.68;47.46
48156;BME280;35568;48.104;11.782;2023-02-28T05:09:19;95783.42;;;-2.22;47.25
48156;BME280;35568;48.104;11.782;2023-02-28T05:11:46;95787.17;;;-2.26;48.00
48156;BME280;35568;48.104;11.782;2023-02-28T05:14:14;95788.66;;;-2.19;47.45
48156;BME280;35568;48.104;11.782;2023-02-28T05:16:41;95791.23;;;-2.55;47.70
48156;BME280;35568;48.104;11.782;2023-02-28T05:19:09;95793.10;;;-2.35;47.48
48156;BME280;35568;48.104;11.782;2023-02-28T05:21:38;95793.70;;;-2.29;48.36
48156;BME280;35568;48.104;11.782;2023-02-28T05:24:08;95791.87;;;-2.24;47.41
48156;BME280;35568;48.104;11.782;2023-02-28T05:26:37;95792.90;;;-2.08;47.60
48156;BME280;35568;48.104;11.782;2023-02-28T05:29:04;95794.64;;;-2.27;47.43
48156;BME280;35568;48.104;11.782;2023-02-28T05:31:31;95798.01;;;-2.08;47.33
48156;BME280;35568;48.104;11.782;2023-02-28T05:33:59;95799.63;;;-2.08;47.21
48156;BME280;35568;48.104;11.782;2023-02-28T05:36:26;95797.68;;;-1.93;47.51
48156;BME280;35568;48.104;11.782;2023-02-28T05:38:53;95796.69;;;-2.11;47.56
48156;BME280;35568;48.104;11.782;2023-02-28T05:41:20;95795.28;;;-1.93;47.46
48156;BME280;35568;48.104;11.782;2023-02-28T05:43:48;95794.81;;;-2.14;47.66
48156;BME280;35568;48.104;11.782;2023-02-28T05:46:15;95793.62;;;-2.02;47.85
48156;BME280;35568;48.104;11.782;2023-02-28T05:48:45;95793.57;;;-2.05;47.97
48156;BME280;35568;48.104;11.782;2023-02-28T05:51:13;95793.68;;;-2.28;48.31
48156;BME280;35568;48.104;11.782;2023-02-28T05:53:40;95798.04;;;-2.31;48.79
48156;BME280;35568;48.104;11.782;2023-02-28T05:56:07;95803.66;;;-2.36;48.26
48156;BME280;35568;48.104;11.782;2023-02-28T05:58:34;95802.35;;;-2.46;48.61
48156;BME280;35568;48.104;11.782;2023-02-28T06:01:20;95803.98;;;-2.16;48.42
48156;BME280;35568;48.104;11.782;2023-02-28T06:03:47;95808.88;;;-2.03;48.44
48156;BME280;35568;48.104;11.782;2023-02-28T06:06:13;95812.07;;;-1.97;48.09
48156;BME280;35568;48.104;11.782;2023-02-28T06:08:40;95816.11;;;-2.13;48.62
48156;BME280;35568;48.104;11.782;2023-02-28T06:11:07;95815.92;;;-2.23;48.67
48156;BME280;35568;48.104;11.782;2023-02-28T06:13:34;95819.35;;;-2.09;48.41
48156;BME280;35568;48.104;11.782;2023-02-28T06:16:01;95815.89;;;-1.99;48.41
48156;BME280;35568;48.104;11.782;2023-02-28T06:18:28;95821.04;;;-2.05;48.75
48156;BME280;35568;48.104;11.782;2023-02-28T06:20:55;95819.18;;;-2.55;48.92
48156;BME280;35568;48.104;11.782;2023-02-28T06:23:23;95821.84;;;-2.24;49.82
48156;BME280;35568;48.104;11.782;2023-02-28T06:25:49;95826.68;;;-2.22;49.33
48156;BME280;35568;48.104;11.782;2023-02-28T06:28:16;95829.84;;;-2.01;48.94
48156;BME280;35568;48.104;11.782;2023-02-28T06:30:44;95830.19;;;-1.83;48.59
48156;BME280;35568;48.104;11.782;2023-02-28T06:33:10;95831.66;;;-1.67;48.11
48156;BME280;35568;48.104;11.782;2023-02-28T06:35:38;95830.88;;;-1.64;48.02
48156;BME280;35568;48.104;11.782;2023-02-28T06:38:05;95831.76;;;-1.48;47.87
48156;BME280;35568;48.104;11.782;2023-02-28T06:40:31;95836.78;;;-1.40;47.41
48156;BME280;35568;48.104;11.782;2023-02-28T06:42:58;95842.04;;;-2.43;47.80
48156;BME280;35568;48.104;11.782;2023-02-28T06:45:25;95845.08;;;-1.44;47.25
48156;BME280;35568;48.104;11.782;2023-02-28T06:47:52;95845.84;;;-1.74;47.79
48156;BME280;35568;48.104;11.782;2023-02-28T06:50:19;95851.70;;;-1.71;47.52
48156;BME280;35568;48.104;11.782;2023-02-28T06:52:47;95852.03;;;-1.65;47.60
48156;BME280;35568;48.104;11.782;2023-02-28T06:55:14;95856.54;;;-1.70;47.81
48156;BME280;35568;48.104;11.782;2023-02-28T06:57:41;95854.56;;;-1.65;47.67
48156;BME280;35568;48.104;11.782;2023-02-28T07:00:09;95856.09;;;-1.72;47.88
48156;BME280;35568;48.104;11.782;2023-02-28T07:02:37;95855.27;;;-1.51;47.43
48156;BME280;35568;48.104;11.782;2023-02-28T07:05:04;95854.58;;;-1.65;47.44
48156;BME280;35568;48.104;11.782;2023-02-28T07:07:33;95855.13;;;-1.88;48.04
48156;BME280;35568;48.104;11.782;2023-02-28T07:10:00;95858.34;;;-1.98;48.33
48156;BME280;35568;48.104;11.782;2023-02-28T07:12:27;95862.22;;;-1.86;48.37
48156;BME280;35568;48.104;11.782;2023-02-28T07:14:54;95861.25;;;-1.80;48.86
48156;BME280;35568;48.104;11.782;2023-02-28T07:17:21;95866.27;;;-1.91;48.23
48156;BME280;35568;48.104;11.782;2023-02-28T07:19:48;95863.61;;;-1.60;48.05
48156;BME280;35568;48.104;11.782;2023-02-28T07:22:15;95865.33;;;-1.66;47.96
48156;BME280;35568;48.104;11.782;2023-02-28T07:24:44;95861.86;;;-1.61;47.21
48156;BME280;35568;48.104;11.782;2023-02-28T07:27:11;95865.22;;;-1.72;47.56
48156;BME280;35568;48.104;11.782;2023-02-28T07:29:38;95867.13;;;-1.78;47.36
48156;BME280;35568;48.104;11.782;2023-02-28T07:32:06;95868.86;;;-1.43;47.67
48156;BME280;35568;48.104;11.782;2023-02-28T07:34:33;95871.98;;;-1.28;46.85
48156;BME280;35568;48.104;11.782;2023-02-28T07:37:05;95867.56;;;-1.58;47.74
48156;BME280;35568;48.104;11.782;2023-02-28T07:39:33;95864.80;;;-1.70;47.58
48156;BME280;35568;48.104;11.782;2023-02-28T07:42:04;95865.08;;;-1.33;47.21
48156;BME280;35568;48.104;11.782;2023-02-28T07:44:31;95863.25;;;-1.22;46.70
48156;BME280;35568;48.104;11.782;2023-02-28T07:46:59;95863.40;;;-0.33;47.48
48156;BME280;35568;48.104;11.782;2023-02-28T07:49:26;95863.99;;;-0.34;46.34
48156;BME280;35568;48.104;11.782;2023-02-28T07:51:54;95869.19;;;-0.30;46.03
48156;BME280;35568;48.104;11.782;2023-02-28T07:54:20;95866.27;;;-0.03;45.30
48156;BME280;35568;48.104;11.782;2023-02-28T07:56:47;95868.95;;;0.10;45.77
48156;BME280;35568;48.104;11.782;2023-02-28T07:59:14;95866.88;;;-0.18;44.68
48156;BME280;35568;48.104;11.782;2023-02-28T08:01:41;95869.50;;;-0.49;45.98
48156;BME280;35568;48.104;11.782;2023-02-28T08:04:08;95872.28;;;0.27;47.19
48156;BME280;35568;48.104;11.782;2023-02-28T08:06:35;95873.49;;;-0.02;45.61
48156;BME280;35568;48.104;11.782;2023-02-28T08:09:03;95872.03;;;-0.12;44.57
48156;BME280;35568;48.104;11.782;2023-02-28T08:11:30;95875.56;;;0.12;45.55
48156;BME280;35568;48.104;11.782;2023-02-28T08:13:57;95883.42;;;0.47;47.04
48156;BME280;35568;48.104;11.782;2023-02-28T08:16:25;95886.06;;;0.48;45.24
48156;BME280;35568;48.104;11.782;2023-02-28T08:18:52;95885.40;;;0.80;44.51
48156;BME280;35568;48.104;11.782;2023-02-28T08:21:20;95884.84;;;0.24;44.01
48156;BME280;35568;48.104;11.782;2023-02-28T08:23:47;95885.95;;;0.43;45.36
48156;BME280;35568;48.104;11.782;2023-02-28T08:26:15;95890.48;;;0.49;45.39
48156;BME280;35568;48.104;11.782;2023-02-28T08:28:42;95890.72;;;0.77;44.15
48156;BME280;35568;48.104;11.782;2023-02-28T08:31:10;95888.53;;;0.41;44.81
48156;BME280;35568;48.104;11.782;2023-02-28T08:33:38;95892.96;;;0.58;43.33
48156;BME280;35568;48.104;11.782;2023-02-28T08:36:07;95893.58;;;0.24;43.43
48156;BME280;35568;48.104;11.782;2023-02-28T08:38:34;95898.04;;;-0.04;44.05
48156;BME280;35568;48.104;11.782;2023-02-28T08:41:04;95899.12;;;0.02;43.94
48156;BME280;35568;48.104;11.782;2023-02-28T08:43:31;95899.15;;;0.53;43.68
48156;BME280;35568;48.104;11.782;2023-02-28T08:45:58;95905.04;;;0.68;44.54
48156;BME280;35568;48.104;11.782;2023-02-28T08:48:25;95907.08;;;0.59;44.70
48156;BME280;35568;48.104;11.782;2023-02-28T08:50:55;95909.11;;;0.98;45.30
48156;BME280;35568;48.104;11.782;2023-02-28T08:53:23;95909.61;;;1.18;43.83
48156;BME280;35568;48.104;11.782;2023-02-28T08:55:59;95909.65;;;1.30;42.03
48156;BME280;35568;48.104;11.782;2023-02-28T08:58:26;95910.68;;;0.68;44.03
48156;BME280;35568;48.104;11.782;2023-02-28T09:00:54;95911.05;;;1.22;42.82
48156;BME280;35568;48.104;11.782;2023-02-28T09:03:21;95911.44;;;0.55;43.34
48156;BME280;35568;48.104;11.782;2023-02-28T09:05:54;95915.06;;;0.77;43.51
48156;BME280;35568;48.104;11.782;2023-02-28T09:08:21;95917.30;;;0.79;43.42
48156;BME280;35568;48.104;11.782;2023-02-28T09:10:48;95919.33;;;0.93;42.60
48156;BME280;35568;48.104;11.782;2023-02-28T09:13:15;95917.54;;;1.11;42.42
48156;BME280;35568;48.104;11.782;2023-02-28T09:15:42;95919.47;;;1.02;42.04
48156;BME280;35568;48.104;11.782;2023-02-28T09:18:10;95924.27;;;1.12;41.71
48156;BME280;35568;48.104;11.782;2023-02-28T09:20:38;95927.46;;;1.06;42.56
48156;BME280;35568;48.104;11.782;2023-02-28T09:23:05;95928.14;;;1.05;43.12
48156;BME280;35568;48.104;11.782;2023-02-28T09:25:32;95929.46;;;0.73;43.08
48156;BME280;35568;48.104;11.782;2023-02-28T09:27:59;95932.15;;;0.99;43.74
48156;BME280;35568;48.104;11.782;2023-02-28T09:30:26;95936.64;;;1.81;42.23
48156;BME280;35568;48.104;11.782;2023-02-28T09:32:54;95939.74;;;1.54;42.66
48156;BME280;35568;48.104;11.782;2023-02-28T09:35:23;95944.02;;;1.86;41.86
48156;BME280;35568;48.104;11.782;2023-02-28T09:37:51;95945.91;;;2.16;41.40
48156;BME280;35568;48.104;11.782;2023-02-28T09:40:19;95949.05;;;1.55;41.40
48156;BME280;35568;48.104;11.782;2023-02-28T09:42:49;95947.81;;;2.15;42.07
48156;BME280;35568;48.104;11.782;2023-02-28T09:45:22;95957.60;;;1.76;40.92
48156;BME280;35568;48.104;11.782;2023-02-28T09:47:53;95960.43;;;1.55;41.45
48156;BME280;35568;48.104;11.782;2023-02-28T09:50:30;95961.54;;;1.73;41.06
48156;BME280;35568;48.104;11.782;2023-02-28T09:53:02;95961.23;;;1.21;41.59
48156;BME280;35568;48.104;11.782;2023-02-28T09:55:33;95962.50;;;1.16;41.88
48156;BME280;35568;48.104;11.782;2023-02-28T09:58:03;95963.28;;;1.03;42.11
48156;BME280;35568;48.104;11.782;2023-02-28T10:00:34;95965.46;;;1.55;41.85
48156;BME280;35568;48.104;11.782;2023-02-28T10:03:21;95968.85;;;1.93;41.58
48156;BME280;35568;48.104;11.782;2023-02-28T10:05:53;95968.30;;;1.63;40.74
48156;BME280;35568;48.104;11.782;2023-02-28T10:08:26;95969.68;;;2.21;41.21
48156;BME280;35568;48.104;11.782;2023-02-28T10:10:57;95959.12;;;1.93;40.41
48156;BME280;35568;48.104;11.782;2023-02-28T10:13:29;95966.92;;;1.94;40.01
48156;BME280;35568;48.104;11.782;2023-02-28T10:16:02;95970.79;;;2.08;40.34
48156;BME280;35568;48.104;11.782;2023-02-28T10:18:41;95966.81;;;0.84;40.72
48156;BME280;35568;48.104;11.782;2023-02-28T10:21:18;95969.55;;;1.60;40.61
48156;BME280;35568;48.104;11.782;2023-02-28T10:23:46;95966.44;;;2.90;39.95
48156;BME280;35568;48.104;11.782;2023-02-28T10:26:16;95961.95;;;3.14;39.20
48156;BME280;35568;48.104;11.782;2023-02-28T10:28:44;95966.29;;;4.03;37.75
48156;BME280;35568;48.104;11.782;2023-02-28T10:31:18;95963.75;;;4.28;36.05
48156;BME280;35568;48.104;11.782;2023-02-28T10:33:45;95961.77;;;5.16;37.01
48156;BME280;35568;48.104;11.782;2023-02-28T10:36:15;95963.46;;;5.03;35.64
48156;BME280;35568;48.104;11.782;2023-02-28T10:38:44;95968.13;;;4.86;35.14
48156;BME280;35568;48.104;11.782;2023-02-28T10:41:14;95968.50;;;5.28;35.40
48156;BME280;35568;48.104;11.782;2023-02-28T10:43:43;95972.29;;;5.99;34.13
48156;BME280;35568;48.104;11.782;2023-02-28T10:46:14;95971.21;;;5.58;34.59
48156;BME280;35568;48.104;11.782;2023-02-28T10:48:44;95972.31;;;5.54;34.71
48156;BME280;35568;48.104;11.782;2023-02-28T10:51:13;95976.66;;;6.00;34.57
48156;BME280;35568;48.104;11.782;2023-02-28T10:53:48;95972.77;;;7.05;32.51
48156;BME280;35568;48.104;11.782;2023-02-28T10:56:18;95972.17;;;7.03;32.73
48156;BME280;35568;48.104;11.782;2023-02-28T10:58:49;95971.20;;;7.87;31.76
48156;BME280;35568;48.104;11.782;2023-02-28T11:01:19;95971.10;;;7.84;31.45
48156;BME280;35568;48.104;11.782;2023-02-28T11:03:47;95977.39;;;8.33;31.22
48156;BME280;35568;48.104;11.782;2023-02-28T11:06:17;95977.52;;;7.94;31.67
48156;BME280;35568;48.104;11.782;2023-02-28T11:08:48;95981.91;;;7.53;32.43
48156;BME280;35568;48.104;11.782;2023-02-28T11:11:16;95982.34;;;6.48;32.61
48156;BME280;35568;48.104;11.782;2023-02-28T11:13:45;95979.07;;;7.36;33.40
48156;BME280;35568;48.104;11.782;2023-02-28T11:16:14;95976.06;;;7.35;33.16
48156;BME280;35568;48.104;11.782;2023-02-28T11:18:46;95978.45;;;7.05;32.13
48156;BME280;35568;48.104;11.782;2023-02-28T11:21:22;95975.40;;;5.89;32.29
48156;BME280;35568;48.104;11.782;2023-02-28T11:23:54;95974.56;;;6.45;33.21
48156;BME280;35568;48.104;11.782;2023-02-28T11:26:43;95975.00;;;6.58;32.56
48156;BME280;35568;48.104;11.782;2023-02-28T11:29:16;95974.19;;;6.45;33.95
48156;BME280;35568;48.104;11.782;2023-02-28T11:31:44;95972.43;;;5.56;33.85
48156;BME280;35568;48.104;11.782;2023-02-28T11:34:27;95969.44;;;6.23;33.12
48156;BME280;35568;48.104;11.782;2023-02-28T11:36:56;95969.55;;;5.38;33.84
48156;BME280;35568;48.104;11.782;2023-02-28T11:39:25;95968.68;;;5.24;33.39
48156;BME280;35568;48.104;11.782;2023-02-28T11:42:07;95965.94;;;5.37;34.65
48156;BME280;35568;48.104;11.782;2023-02-28T11:44:48;95960.14;;;5.05;34.81
48156;BME280;35568;48.104;11.782;2023-02-28T11:47:28;95958.93;;;5.59;34.08
48156;BME280;35568;48.104;11.782;2023-02-28T11:50:07;95951.05;;;5.22;35.39
48156;BME280;35568;48.104;11.782;2023-02-28T11:52:45;95947.61;;;6.24;33.24
48156;BME280;35568;48.104;11.782;2023-02-28T11:55:19;95943.86;;;7.67;32.64
48156;BME280;35568;48.104;11.782;2023-02-28T11:57:58;95942.71;;;7.97;32.00
48156;BME280;35568;48.104;11.782;2023-02-28T12:00:39;95943.54;;;8.79;30.90
48156;BME280;35568;48.104;11.782;2023-02-28T12:03:16;95941.45;;;9.06;30.05
48156;BME280;35568;48.104;11.782;2023-02-28T12:05:56;95939.42;;;8.67;29.69
48156;BME280;35568;48.104;11.782;2023-02-28T12:08:44;95933.05;;;7.58;31.84
48156;BME280;35568;48.104;11.782;2023-02-28T12:11:19;95932.26;;;7.62;30.80
48156;BME280;35568;48.104;11.782;2023-02-28T12:13:58;95935.75;;;8.72;30.32
48156;BME280;35568;48.104;11.782;2023-02-28T12:16:42;95934.55;;;8.99;30.08
48156;BME280;35568;48.104;11.782;2023-02-28T12:19:19;95934.33;;;10.10;29.11
48156;BME280;35568;48.104;11.782;2023-02-28T12:22:00;95936.47;;;9.37;29.46
48156;BME280;35568;48.104;11.782;2023-02-28T12:24:39;95930.40;;;9.44;30.11
48156;BME280;35568;48.104;11.782;2023-02-28T12:27:11;95923.25;;;9.68;29.81
48156;BME280;35568;48.104;11.782;2023-02-28T12:29:46;95927.78;;;8.42;30.22
48156;BME280;35568;48.104;11.782;2023-02-28T12:32:20;95925.99;;;9.77;29.22
48156;BME280;35568;48.104;11.782;2023-02-28T12:34:51;95924.28;;;10.23;27.92
48156;BME280;35568;48.104;11.782;2023-02-28T12:37:25;95920.30;;;9.92;29.24
48156;BME280;35568;48.104;11.782;2023-02-28T12:39:59;95918.64;;;9.64;29.33
48156;BME280;35568;48.104;11.782;2023-02-28T12:42:29;95916.38;;;8.04;29.54
48156;BME280;35568;48.104;11.782;2023-02-28T12:44:59;95911.31;;;7.64;30.81
48156;BME280;35568;48.104;11.782;2023-02-28T12:47:27;95911.38;;;7.40;31.12
48156;BME280;35568;48.104;11.782;2023-02-28T12:49:58;95908.24;;;8.77;30.83
48156;BME280;35568;48.104;11.782;2023-02-28T12:52:34;95908.72;;;9.41;29.43
48156;BME280;35568;48.104;11.782;2023-02-28T12:55:07;95912.37;;;9.89;29.00
48156;BME280;35568;48.104;11.782;2023-02-28T12:57:38;95905.76;;;10.34;28.05
48156;BME280;35568;48.104;11.782;2023-02-28T13:00:12;95908.90;;;10.07;28.78
48156;BME280;35568;48.104;11.782;2023-02-28T13:03:01;95906.17;;;10.53;28.07
48156;BME280;35568;48.104;11.782;2023-02-28T13:06:19;95907.04;;;10.40;28.44
48156;BME280;35568;48.104;11.782;2023-02-28T13:08:59;95907.62;;;9.63;28.43
48156;BME280;35568;48.104;11.782;2023-02-28T13:11:29;95909.20;;;9.04;28.55
48156;BME280;35568;48.104;11.782;2023-02-28T13:14:00;95909.11;;;8.88;28.85
48156;BME280;35568;48.104;11.782;2023-02-28T13:16:28;95909.11;;;7.98;29.93